Rimersburg, PA (16248)

10:15 AM EST on March 03, 2015 (GMT -0500)
Kaylor | Change Station
CLOSE
Current Station
Personal Weather Station
Location: Chicora, PA
Elevation: 1329 ft
Nearby Weather Stations
Active Advisory: Winter Weather Advisory

Elev 1329 ft 40.98 °N, 79.66 °W | Updated 32 seconds ago

Snow
Snow
22.5 °F
Feels Like 22 °F
N
0.0
Wind Variable Wind from ENE
Gusts 2.0 mph

Today
High -- | Low -- °F
--% Chance of Precip.
Yesterday
High -- | Low -- °F
Precip. -- in
6:49 AM 6:11 PM
Waxing Gibbous, 96% visible
Pressure 30.13 in
Visibility 10.0 miles
Clouds Few 2700 ft
Scattered Clouds 3500 ft
Mostly Cloudy 4200 ft
Windchill 22 °F
Dew Point 14 °F
Humidity 69%
Rainfall 0.00 in
Snow Depth Not available.
UV 2 out of 12
Pollen .60 out of 12
Air Quality Not available.
Flu Activity Not available.
METAR KBTP 031455Z AUTO 10010KT 10SM FEW027 SCT035 BKN042 M06/M11 A3013 RMK AO1 57037

More Conditions Fewer Conditions

Pressure 30.13 in
Visibility 10.0 miles
Clouds Few 2700 ft
Scattered Clouds 3500 ft
Mostly Cloudy 4200 ft
Windchill 22 °F
Dew Point 14 °F
Humidity 69%
Rainfall 0.00 in
Snow Depth Not available.
UV 2 out of 12
Pollen .60 out of 12
Air Quality Not available.
Flu Activity Not available.
METAR KBTP 031455Z AUTO 10010KT 10SM FEW027 SCT035 BKN042 M06/M11 A3013 RMK AO1 57037

More Conditions Fewer Conditions

10-Day Weather Forecast

Almanac

Astronomy

Mar. 03, 2015 Rise Set
Actual Time
Civil Twilight
Nautical Twilight
Astronomical Twilight
Moon
Length of Visible Light
Length of Day
Tomorrow will be .
, % of the Moon is Illuminated

Today's Extremes

State Highs State Lows

Community

WunderPhotos

Upload Photos

1,802,136 photos uploaded!

WunderBlogs® & News

Nearby

Air Quality

  Air Quality AQ Index Pollutant
Not available.

Snow Depth

Station Depth Elevation

Earthquake Activity

City Distance Mag. Time & Date
Minimum magnitude displayed is 2.5.

Coastal Water Temperatures

Place Temperature

Nearby Weather Stations

Winter Weather Advisory
Statement as of 9:06 AM EST on March 03, 2015

... Winter Weather Advisory now in effect until 7 PM EST this
evening...

* ice accumulations... a trace to five hundredths of an inch.

* Snow accumulations... less than an inch.

* Snow/ice beginning... precipitation will begin as a mix of
snow... sleet... and freezing rain by late this morning.

* Snow/ice ending... precipitation will change to all rain by
this evening.

* Impacts... hazardous travel conditions are expected due to
snow... sleet and ice covered roads.

Precautionary/preparedness actions...

A Winter Weather Advisory means that snow... sleet... or freezing
rain will cause travel difficulties. Use caution while driving
and report snow and ice accumulation to the National Weather
Service by calling 412-262-1988... posting to the NWS Pittsburgh
facebook Page... or using twitter @nwspittsburgh.